sensor_id;sensor_type;location;lat;lon;timestamp;pressure;altitude;pressure_sealevel;temperature;humidity
35910;BME280;22004;49.120;-0.200;2023-04-20T00:01:06;101626.47;;;11.99;64.57
35910;BME280;22004;49.120;-0.200;2023-04-20T00:03:32;101624.75;;;11.81;67.85
35910;BME280;22004;49.120;-0.200;2023-04-20T00:05:59;101624.22;;;11.78;67.15
35910;BME280;22004;49.120;-0.200;2023-04-20T00:08:26;101622.72;;;11.75;66.49
35910;BME280;22004;49.120;-0.200;2023-04-20T00:10:52;101627.41;;;11.73;65.06
35910;BME280;22004;49.120;-0.200;2023-04-20T00:13:17;101627.00;;;11.19;63.84
35910;BME280;22004;49.120;-0.200;2023-04-20T00:15:43;101620.00;;;11.51;64.55
35910;BME280;22004;49.120;-0.200;2023-04-20T00:18:08;101625.81;;;11.88;68.47
35910;BME280;22004;49.120;-0.200;2023-04-20T00:20:33;101626.25;;;11.59;65.38
35910;BME280;22004;49.120;-0.200;2023-04-20T00:22:59;101628.66;;;11.87;66.17
35910;BME280;22004;49.120;-0.200;2023-04-20T00:25:25;101620.47;;;11.30;63.88
35910;BME280;22004;49.120;-0.200;2023-04-20T00:27:50;101621.22;;;11.64;64.81
35910;BME280;22004;49.120;-0.200;2023-04-20T00:30:15;101616.66;;;11.65;66.24
35910;BME280;22004;49.120;-0.200;2023-04-20T00:32:41;101619.47;;;11.39;63.23
35910;BME280;22004;49.120;-0.200;2023-04-20T00:35:06;101620.72;;;11.69;65.30
35910;BME280;22004;49.120;-0.200;2023-04-20T00:37:31;101616.69;;;11.98;62.30
35910;BME280;22004;49.120;-0.200;2023-04-20T00:39:57;101617.53;;;11.82;64.86
35910;BME280;22004;49.120;-0.200;2023-04-20T00:42:22;101608.25;;;11.76;66.23
35910;BME280;22004;49.120;-0.200;2023-04-20T00:44:48;101615.66;;;12.39;66.29
35910;BME280;22004;49.120;-0.200;2023-04-20T00:47:15;101608.47;;;11.91;61.65
35910;BME280;22004;49.120;-0.200;2023-04-20T00:49:40;101612.81;;;11.76;60.20
35910;BME280;22004;49.120;-0.200;2023-04-20T00:52:06;101604.94;;;11.90;60.88
35910;BME280;22004;49.120;-0.200;2023-04-20T00:54:31;101596.13;;;12.46;65.62
35910;BME280;22004;49.120;-0.200;2023-04-20T00:56:57;101597.31;;;12.35;64.35
35910;BME280;22004;49.120;-0.200;2023-04-20T00:59:23;101597.34;;;11.70;61.72
35910;BME280;22004;49.120;-0.200;2023-04-20T01:01:49;101587.25;;;12.12;66.18
35910;BME280;22004;49.120;-0.200;2023-04-20T01:04:15;101582.38;;;12.24;65.38
35910;BME280;22004;49.120;-0.200;2023-04-20T01:06:40;101588.03;;;12.46;66.47
35910;BME280;22004;49.120;-0.200;2023-04-20T01:09:06;101582.00;;;12.27;61.99
35910;BME280;22004;49.120;-0.200;2023-04-20T01:11:31;101579.69;;;11.59;63.60
35910;BME280;22004;49.120;-0.200;2023-04-20T01:13:56;101578.66;;;11.68;66.69
35910;BME280;22004;49.120;-0.200;2023-04-20T01:16:22;101580.53;;;12.25;66.50
35910;BME280;22004;49.120;-0.200;2023-04-20T01:18:48;101580.34;;;12.26;66.89
35910;BME280;22004;49.120;-0.200;2023-04-20T01:21:16;101570.25;;;12.28;66.59
35910;BME280;22004;49.120;-0.200;2023-04-20T01:23:42;101576.31;;;12.22;66.06
35910;BME280;22004;49.120;-0.200;2023-04-20T01:26:09;101564.50;;;12.39;65.80
35910;BME280;22004;49.120;-0.200;2023-04-20T01:28:35;101568.75;;;12.18;66.55
35910;BME280;22004;49.120;-0.200;2023-04-20T01:31:05;101574.81;;;12.20;66.65
35910;BME280;22004;49.120;-0.200;2023-04-20T01:33:31;101566.72;;;12.11;67.21
35910;BME280;22004;49.120;-0.200;2023-04-20T01:35:57;101561.34;;;12.03;66.95
35910;BME280;22004;49.120;-0.200;2023-04-20T01:38:23;101563.22;;;12.03;66.73
35910;BME280;22004;49.120;-0.200;2023-04-20T01:40:49;101561.72;;;12.00;66.94
35910;BME280;22004;49.120;-0.200;2023-04-20T01:43:15;101555.31;;;11.93;67.02
35910;BME280;22004;49.120;-0.200;2023-04-20T01:45:40;101549.44;;;11.89;67.62
35910;BME280;22004;49.120;-0.200;2023-04-20T01:48:06;101546.91;;;11.88;67.09
35910;BME280;22004;49.120;-0.200;2023-04-20T01:50:31;101547.41;;;11.83;67.26
35910;BME280;22004;49.120;-0.200;2023-04-20T01:52:56;101550.28;;;11.82;66.87
35910;BME280;22004;49.120;-0.200;2023-04-20T01:55:22;101547.41;;;11.75;67.42
35910;BME280;22004;49.120;-0.200;2023-04-20T01:57:47;101552.47;;;11.95;67.23
35910;BME280;22004;49.120;-0.200;2023-04-20T02:00:13;101542.91;;;11.84;66.82
35910;BME280;22004;49.120;-0.200;2023-04-20T02:02:38;101550.47;;;11.88;67.53
35910;BME280;22004;49.120;-0.200;2023-04-20T02:05:04;101549.75;;;11.78;67.79
35910;BME280;22004;49.120;-0.200;2023-04-20T02:07:30;101540.00;;;11.69;67.33
35910;BME280;22004;49.120;-0.200;2023-04-20T02:09:55;101543.03;;;11.66;67.97
35910;BME280;22004;49.120;-0.200;2023-04-20T02:12:20;101549.09;;;11.60;67.96
35910;BME280;22004;49.120;-0.200;2023-04-20T02:14:46;101553.63;;;11.59;67.26
35910;BME280;22004;49.120;-0.200;2023-04-20T02:17:11;101555.81;;;11.64;67.22
35910;BME280;22004;49.120;-0.200;2023-04-20T02:19:38;101555.97;;;11.62;67.76
35910;BME280;22004;49.120;-0.200;2023-04-20T02:22:03;101546.38;;;11.68;66.75
35910;BME280;22004;49.120;-0.200;2023-04-20T02:24:28;101547.56;;;11.49;66.91
35910;BME280;22004;49.120;-0.200;2023-04-20T02:26:53;101556.13;;;11.53;66.98
35910;BME280;22004;49.120;-0.200;2023-04-20T02:29:19;101550.59;;;11.54;67.65
35910;BME280;22004;49.120;-0.200;2023-04-20T02:31:44;101554.09;;;11.47;67.60
35910;BME280;22004;49.120;-0.200;2023-04-20T02:34:10;101556.97;;;11.53;67.44
35910;BME280;22004;49.120;-0.200;2023-04-20T02:36:35;101558.13;;;11.34;67.30
35910;BME280;22004;49.120;-0.200;2023-04-20T02:39:01;101553.25;;;11.38;67.52
35910;BME280;22004;49.120;-0.200;2023-04-20T02:41:27;101553.91;;;11.32;67.80
35910;BME280;22004;49.120;-0.200;2023-04-20T02:43:53;101548.72;;;11.30;66.86
35910;BME280;22004;49.120;-0.200;2023-04-20T02:46:19;101548.03;;;11.28;67.02
35910;BME280;22004;49.120;-0.200;2023-04-20T02:48:44;101546.88;;;11.31;67.49
35910;BME280;22004;49.120;-0.200;2023-04-20T02:51:10;101549.22;;;11.26;67.26
35910;BME280;22004;49.120;-0.200;2023-04-20T02:53:35;101545.84;;;11.24;67.04
35910;BME280;22004;49.120;-0.200;2023-04-20T02:56:00;101542.81;;;11.27;67.15
35910;BME280;22004;49.120;-0.200;2023-04-20T02:58:26;101540.44;;;11.24;67.30
35910;BME280;22004;49.120;-0.200;2023-04-20T03:00:51;101544.34;;;11.37;67.07
35910;BME280;22004;49.120;-0.200;2023-04-20T03:03:22;101537.78;;;11.32;67.19
35910;BME280;22004;49.120;-0.200;2023-04-20T03:05:47;101545.19;;;11.46;67.33
35910;BME280;22004;49.120;-0.200;2023-04-20T03:08:13;101546.53;;;11.26;66.61
35910;BME280;22004;49.120;-0.200;2023-04-20T03:10:38;101544.88;;;11.41;66.58
35910;BME280;22004;49.120;-0.200;2023-04-20T03:13:04;101547.91;;;11.46;66.52
35910;BME280;22004;49.120;-0.200;2023-04-20T03:15:29;101546.19;;;11.37;65.94
35910;BME280;22004;49.120;-0.200;2023-04-20T03:17:54;101544.69;;;11.43;66.30
35910;BME280;22004;49.120;-0.200;2023-04-20T03:20:20;101548.22;;;11.43;65.93
35910;BME280;22004;49.120;-0.200;2023-04-20T03:22:45;101539.31;;;11.34;66.41
35910;BME280;22004;49.120;-0.200;2023-04-20T03:25:11;101546.56;;;11.50;66.23
35910;BME280;22004;49.120;-0.200;2023-04-20T03:27:36;101535.47;;;11.61;65.74
35910;BME280;22004;49.120;-0.200;2023-04-20T03:30:01;101544.03;;;11.41;65.13
35910;BME280;22004;49.120;-0.200;2023-04-20T03:32:27;101542.16;;;11.25;66.15
35910;BME280;22004;49.120;-0.200;2023-04-20T03:34:52;101544.34;;;11.29;65.22
35910;BME280;22004;49.120;-0.200;2023-04-20T03:37:17;101539.81;;;11.30;65.51
35910;BME280;22004;49.120;-0.200;2023-04-20T03:39:43;101542.84;;;11.43;66.25
35910;BME280;22004;49.120;-0.200;2023-04-20T03:42:08;101547.88;;;11.30;64.93
35910;BME280;22004;49.120;-0.200;2023-04-20T03:44:34;101540.78;;;11.12;65.58
35910;BME280;22004;49.120;-0.200;2023-04-20T03:46:59;101541.66;;;11.29;65.28
35910;BME280;22004;49.120;-0.200;2023-04-20T03:49:24;101532.75;;;11.37;65.62
35910;BME280;22004;49.120;-0.200;2023-04-20T03:51:50;101537.28;;;11.28;65.55
35910;BME280;22004;49.120;-0.200;2023-04-20T03:54:16;101529.56;;;11.25;65.03
35910;BME280;22004;49.120;-0.200;2023-04-20T03:56:41;101533.09;;;11.34;65.84
35910;BME280;22004;49.120;-0.200;2023-04-20T03:59:08;101540.13;;;11.27;65.18
35910;BME280;22004;49.120;-0.200;2023-04-20T04:01:35;101541.28;;;11.16;64.86
35910;BME280;22004;49.120;-0.200;2023-04-20T04:04:02;101533.59;;;11.21;65.29
35910;BME280;22004;49.120;-0.200;2023-04-20T04:06:28;101536.94;;;11.23;65.11
35910;BME280;22004;49.120;-0.200;2023-04-20T04:08:53;101540.94;;;11.11;64.44
35910;BME280;22004;49.120;-0.200;2023-04-20T04:11:18;101539.09;;;11.11;64.90
35910;BME280;22004;49.120;-0.200;2023-04-20T04:13:44;101536.59;;;11.18;65.41
35910;BME280;22004;49.120;-0.200;2023-04-20T04:16:09;101535.28;;;10.72;62.08
35910;BME280;22004;49.120;-0.200;2023-04-20T04:18:34;101539.28;;;11.18;64.65
35910;BME280;22004;49.120;-0.200;2023-04-20T04:21:00;101546.69;;;11.16;64.77
35910;BME280;22004;49.120;-0.200;2023-04-20T04:23:25;101539.97;;;11.28;64.80
35910;BME280;22004;49.120;-0.200;2023-04-20T04:25:51;101537.91;;;11.06;64.84
35910;BME280;22004;49.120;-0.200;2023-04-20T04:28:16;101530.72;;;11.15;64.88
35910;BME280;22004;49.120;-0.200;2023-04-20T04:30:42;101535.91;;;11.08;64.58
35910;BME280;22004;49.120;-0.200;2023-04-20T04:33:07;101545.66;;;11.17;64.29
35910;BME280;22004;49.120;-0.200;2023-04-20T04:35:34;101542.44;;;11.13;64.87
35910;BME280;22004;49.120;-0.200;2023-04-20T04:38:00;101537.06;;;11.13;64.63
35910;BME280;22004;49.120;-0.200;2023-04-20T04:40:26;101543.84;;;11.26;63.43
35910;BME280;22004;49.120;-0.200;2023-04-20T04:42:51;101540.63;;;11.14;64.51
35910;BME280;22004;49.120;-0.200;2023-04-20T04:45:17;101533.91;;;11.18;64.34
35910;BME280;22004;49.120;-0.200;2023-04-20T04:47:42;101534.22;;;11.07;63.81
35910;BME280;22004;49.120;-0.200;2023-04-20T04:50:09;101524.69;;;11.21;63.85
35910;BME280;22004;49.120;-0.200;2023-04-20T04:52:35;101527.19;;;11.22;64.58
35910;BME280;22004;49.120;-0.200;2023-04-20T04:55:01;101527.03;;;10.05;61.21
35910;BME280;22004;49.120;-0.200;2023-04-20T04:57:27;101531.03;;;11.11;64.17
35910;BME280;22004;49.120;-0.200;2023-04-20T04:59:52;101538.63;;;11.16;63.72
35910;BME280;22004;49.120;-0.200;2023-04-20T05:02:18;101543.81;;;11.09;64.43
35910;BME280;22004;49.120;-0.200;2023-04-20T05:04:45;101540.59;;;11.06;63.87
35910;BME280;22004;49.120;-0.200;2023-04-20T05:07:10;101542.91;;;10.93;63.91
35910;BME280;22004;49.120;-0.200;2023-04-20T05:09:36;101540.56;;;10.90;63.74
35910;BME280;22004;49.120;-0.200;2023-04-20T05:12:02;101539.41;;;11.08;64.35
35910;BME280;22004;49.120;-0.200;2023-04-20T05:14:29;101539.22;;;10.94;64.33
35910;BME280;22004;49.120;-0.200;2023-04-20T05:16:55;101538.72;;;10.90;64.27
35910;BME280;22004;49.120;-0.200;2023-04-20T05:19:20;101545.28;;;10.96;64.34
35910;BME280;22004;49.120;-0.200;2023-04-20T05:21:46;101551.50;;;10.96;63.66
35910;BME280;22004;49.120;-0.200;2023-04-20T05:24:11;101562.06;;;10.90;64.31
35910;BME280;22004;49.120;-0.200;2023-04-20T05:26:36;101561.75;;;11.01;64.25
35910;BME280;22004;49.120;-0.200;2023-04-20T05:29:02;101564.03;;;10.87;64.55
35910;BME280;22004;49.120;-0.200;2023-04-20T05:31:27;101564.63;;;10.99;64.26
35910;BME280;22004;49.120;-0.200;2023-04-20T05:33:53;101562.19;;;10.80;63.74
35910;BME280;22004;49.120;-0.200;2023-04-20T05:36:19;101572.81;;;10.98;64.05
35910;BME280;22004;49.120;-0.200;2023-04-20T05:38:45;101574.84;;;10.96;64.34
35910;BME280;22004;49.120;-0.200;2023-04-20T05:41:10;101580.88;;;10.98;63.67
35910;BME280;22004;49.120;-0.200;2023-04-20T05:43:35;101584.75;;;10.95;63.87
35910;BME280;22004;49.120;-0.200;2023-04-20T05:46:01;101587.13;;;11.06;63.63
35910;BME280;22004;49.120;-0.200;2023-04-20T05:48:26;101582.06;;;11.03;64.19
35910;BME280;22004;49.120;-0.200;2023-04-20T05:50:52;101587.44;;;10.95;64.34
35910;BME280;22004;49.120;-0.200;2023-04-20T05:53:18;101578.66;;;10.93;64.12
35910;BME280;22004;49.120;-0.200;2023-04-20T05:55:43;101581.75;;;11.06;63.54
35910;BME280;22004;49.120;-0.200;2023-04-20T05:58:08;101588.13;;;11.05;63.78
35910;BME280;22004;49.120;-0.200;2023-04-20T06:00:34;101597.34;;;11.03;61.36
35910;BME280;22004;49.120;-0.200;2023-04-20T06:02:59;101604.44;;;11.12;63.32
35910;BME280;22004;49.120;-0.200;2023-04-20T06:05:25;101591.84;;;11.04;63.58
35910;BME280;22004;49.120;-0.200;2023-04-20T06:07:50;101602.00;;;11.35;63.11
35910;BME280;22004;49.120;-0.200;2023-04-20T06:10:15;101599.63;;;11.32;63.02
35910;BME280;22004;49.120;-0.200;2023-04-20T06:12:41;101590.19;;;11.20;63.45
35910;BME280;22004;49.120;-0.200;2023-04-20T06:15:07;101599.78;;;11.30;63.16
35910;BME280;22004;49.120;-0.200;2023-04-20T06:17:35;101596.25;;;11.22;63.21
35910;BME280;22004;49.120;-0.200;2023-04-20T06:20:01;101604.97;;;11.16;63.36
35910;BME280;22004;49.120;-0.200;2023-04-20T06:22:28;101604.31;;;11.22;63.15
35910;BME280;22004;49.120;-0.200;2023-04-20T06:24:53;101606.31;;;11.20;61.95
35910;BME280;22004;49.120;-0.200;2023-04-20T06:27:18;101608.56;;;10.30;63.66
35910;BME280;22004;49.120;-0.200;2023-04-20T06:29:44;101606.63;;;11.92;58.98
35910;BME280;22004;49.120;-0.200;2023-04-20T06:32:09;101604.09;;;15.57;50.34
35910;BME280;22004;49.120;-0.200;2023-04-20T06:34:34;101602.47;;;16.62;46.25
35910;BME280;22004;49.120;-0.200;2023-04-20T06:37:00;101612.66;;;17.42;44.70
35910;BME280;22004;49.120;-0.200;2023-04-20T06:39:25;101612.50;;;18.76;41.46
35910;BME280;22004;49.120;-0.200;2023-04-20T06:41:50;101604.38;;;19.21;40.32
35910;BME280;22004;49.120;-0.200;2023-04-20T06:44:16;101605.22;;;19.22;40.59
35910;BME280;22004;49.120;-0.200;2023-04-20T06:46:41;101614.34;;;18.89;39.84
35910;BME280;22004;49.120;-0.200;2023-04-20T06:49:07;101612.00;;;16.51;37.63
35910;BME280;22004;49.120;-0.200;2023-04-20T06:51:32;101609.50;;;17.45;42.58
35910;BME280;22004;49.120;-0.200;2023-04-20T06:53:58;101613.03;;;16.78;40.93
35910;BME280;22004;49.120;-0.200;2023-04-20T06:56:24;101602.31;;;17.92;42.56
35910;BME280;22004;49.120;-0.200;2023-04-20T06:58:49;101602.00;;;15.59;40.52
35910;BME280;22004;49.120;-0.200;2023-04-20T07:01:14;101597.25;;;14.59;46.12
35910;BME280;22004;49.120;-0.200;2023-04-20T07:03:40;101597.19;;;13.92;45.07
35910;BME280;22004;49.120;-0.200;2023-04-20T07:06:05;101600.38;;;15.80;45.42
35910;BME280;22004;49.120;-0.200;2023-04-20T07:08:34;101597.47;;;14.20;44.32
35910;BME280;22004;49.120;-0.200;2023-04-20T07:11:00;101598.84;;;13.55;44.19
35910;BME280;22004;49.120;-0.200;2023-04-20T07:13:25;101593.88;;;15.38;46.21
35910;BME280;22004;49.120;-0.200;2023-04-20T07:15:51;101606.28;;;14.66;41.50
35910;BME280;22004;49.120;-0.200;2023-04-20T07:18:16;101606.72;;;13.88;42.65
35910;BME280;22004;49.120;-0.200;2023-04-20T07:20:42;101596.34;;;14.67;42.75
35910;BME280;22004;49.120;-0.200;2023-04-20T07:23:07;101605.03;;;13.64;45.14
35910;BME280;22004;49.120;-0.200;2023-04-20T07:25:32;101602.44;;;13.93;47.69
35910;BME280;22004;49.120;-0.200;2023-04-20T07:27:58;101599.34;;;14.19;43.74
35910;BME280;22004;49.120;-0.200;2023-04-20T07:30:23;101598.81;;;15.70;40.88
35910;BME280;22004;49.120;-0.200;2023-04-20T07:32:49;101594.63;;;14.81;44.40
35910;BME280;22004;49.120;-0.200;2023-04-20T07:35:14;101604.16;;;14.09;42.23
35910;BME280;22004;49.120;-0.200;2023-04-20T07:37:40;101601.59;;;15.41;38.77
35910;BME280;22004;49.120;-0.200;2023-04-20T07:40:06;101604.06;;;16.21;42.62
35910;BME280;22004;49.120;-0.200;2023-04-20T07:42:32;101605.38;;;14.59;40.01
35910;BME280;22004;49.120;-0.200;2023-04-20T07:44:58;101602.63;;;14.44;43.12
35910;BME280;22004;49.120;-0.200;2023-04-20T07:47:24;101601.88;;;15.10;43.58
35910;BME280;22004;49.120;-0.200;2023-04-20T07:49:49;101603.50;;;15.62;41.21
35910;BME280;22004;49.120;-0.200;2023-04-20T07:52:15;101596.72;;;16.15;38.32
35910;BME280;22004;49.120;-0.200;2023-04-20T07:54:40;101603.22;;;16.49;41.33
35910;BME280;22004;49.120;-0.200;2023-04-20T07:57:05;101598.97;;;16.40;36.99
35910;BME280;22004;49.120;-0.200;2023-04-20T07:59:32;101600.53;;;16.90;40.13
35910;BME280;22004;49.120;-0.200;2023-04-20T08:01:58;101599.75;;;16.96;38.13
35910;BME280;22004;49.120;-0.200;2023-04-20T08:04:25;101596.00;;;16.91;39.70
35910;BME280;22004;49.120;-0.200;2023-04-20T08:06:50;101597.38;;;17.35;38.13
35910;BME280;22004;49.120;-0.200;2023-04-20T08:09:16;101605.50;;;16.80;39.97
35910;BME280;22004;49.120;-0.200;2023-04-20T08:11:41;101614.91;;;16.77;42.24
35910;BME280;22004;49.120;-0.200;2023-04-20T08:14:06;101608.50;;;17.60;38.53
35910;BME280;22004;49.120;-0.200;2023-04-20T08:16:32;101612.28;;;16.97;36.44
35910;BME280;22004;49.120;-0.200;2023-04-20T08:18:57;101606.50;;;17.07;40.03
35910;BME280;22004;49.120;-0.200;2023-04-20T08:21:22;101603.69;;;17.42;37.97
35910;BME280;22004;49.120;-0.200;2023-04-20T08:23:48;101602.78;;;16.17;38.50
35910;BME280;22004;49.120;-0.200;2023-04-20T08:26:14;101609.38;;;18.53;36.87
35910;BME280;22004;49.120;-0.200;2023-04-20T08:28:41;101618.38;;;17.74;36.48
35910;BME280;22004;49.120;-0.200;2023-04-20T08:31:08;101615.00;;;16.07;38.49
35910;BME280;22004;49.120;-0.200;2023-04-20T08:33:33;101611.97;;;15.95;37.55
35910;BME280;22004;49.120;-0.200;2023-04-20T08:35:59;101617.16;;;17.90;38.21
35910;BME280;22004;49.120;-0.200;2023-04-20T08:38:24;101618.63;;;16.20;38.33
35910;BME280;22004;49.120;-0.200;2023-04-20T08:40:49;101621.34;;;17.18;40.05
35910;BME280;22004;49.120;-0.200;2023-04-20T08:43:15;101610.84;;;16.39;41.94
35910;BME280;22004;49.120;-0.200;2023-04-20T08:45:42;101616.44;;;16.65;40.94
35910;BME280;22004;49.120;-0.200;2023-04-20T08:48:11;101616.88;;;16.69;38.35
35910;BME280;22004;49.120;-0.200;2023-04-20T08:50:40;101605.50;;;17.21;38.80
35910;BME280;22004;49.120;-0.200;2023-04-20T08:53:05;101611.78;;;17.35;36.84
35910;BME280;22004;49.120;-0.200;2023-04-20T08:55:31;101608.63;;;17.25;36.80
35910;BME280;22004;49.120;-0.200;2023-04-20T08:57:56;101612.00;;;17.27;37.57
35910;BME280;22004;49.120;-0.200;2023-04-20T09:00:22;101611.94;;;16.72;39.29
35910;BME280;22004;49.120;-0.200;2023-04-20T09:02:52;101615.88;;;17.79;38.13
35910;BME280;22004;49.120;-0.200;2023-04-20T09:05:28;101615.13;;;16.54;36.90
35910;BME280;22004;49.120;-0.200;2023-04-20T09:07:55;101613.13;;;16.98;35.58
35910;BME280;22004;49.120;-0.200;2023-04-20T09:10:22;101609.09;;;15.60;37.94
35910;BME280;22004;49.120;-0.200;2023-04-20T09:12:48;101623.75;;;17.47;36.62
35910;BME280;22004;49.120;-0.200;2023-04-20T09:15:28;101613.44;;;16.47;38.62
35910;BME280;22004;49.120;-0.200;2023-04-20T09:17:54;101611.69;;;16.39;39.74
35910;BME280;22004;49.120;-0.200;2023-04-20T09:20:31;101614.81;;;17.05;38.88
35910;BME280;22004;49.120;-0.200;2023-04-20T09:23:09;101614.09;;;16.90;36.33
35910;BME280;22004;49.120;-0.200;2023-04-20T09:25:34;101611.41;;;16.90;36.73
35910;BME280;22004;49.120;-0.200;2023-04-20T09:28:00;101608.41;;;16.72;38.42
35910;BME280;22004;49.120;-0.200;2023-04-20T09:30:39;101602.47;;;17.57;38.72
35910;BME280;22004;49.120;-0.200;2023-04-20T09:33:05;101590.81;;;17.09;40.22
35910;BME280;22004;49.120;-0.200;2023-04-20T09:35:37;101581.75;;;17.50;39.05
35910;BME280;22004;49.120;-0.200;2023-04-20T09:38:05;101588.25;;;16.94;37.06
35910;BME280;22004;49.120;-0.200;2023-04-20T09:40:31;101587.34;;;17.35;38.62
35910;BME280;22004;49.120;-0.200;2023-04-20T09:43:01;101597.88;;;16.97;37.68
35910;BME280;22004;49.120;-0.200;2023-04-20T09:45:28;101581.91;;;16.74;34.68
35910;BME280;22004;49.120;-0.200;2023-04-20T09:47:53;101581.97;;;17.48;36.76
35910;BME280;22004;49.120;-0.200;2023-04-20T09:50:20;101579.88;;;16.54;36.22
35910;BME280;22004;49.120;-0.200;2023-04-20T09:52:45;101593.59;;;17.29;37.64
35910;BME280;22004;49.120;-0.200;2023-04-20T09:55:13;101593.88;;;16.58;36.59
35910;BME280;22004;49.120;-0.200;2023-04-20T09:57:39;101586.13;;;16.48;38.56
35910;BME280;22004;49.120;-0.200;2023-04-20T10:00:06;101590.69;;;16.48;37.31
35910;BME280;22004;49.120;-0.200;2023-04-20T10:02:32;101578.91;;;16.27;34.42
35910;BME280;22004;49.120;-0.200;2023-04-20T10:04:58;101584.16;;;16.70;36.09
35910;BME280;22004;49.120;-0.200;2023-04-20T10:07:28;101583.91;;;16.65;38.27
35910;BME280;22004;49.120;-0.200;2023-04-20T10:10:07;101586.97;;;16.55;35.93
35910;BME280;22004;49.120;-0.200;2023-04-20T10:12:33;101571.59;;;16.91;38.14
35910;BME280;22004;49.120;-0.200;2023-04-20T10:15:10;101573.19;;;16.78;38.54
35910;BME280;22004;49.120;-0.200;2023-04-20T10:17:36;101573.97;;;16.38;35.09
35910;BME280;22004;49.120;-0.200;2023-04-20T10:20:01;101573.72;;;16.33;38.20
35910;BME280;22004;49.120;-0.200;2023-04-20T10:22:30;101567.22;;;17.03;37.00
35910;BME280;22004;49.120;-0.200;2023-04-20T10:25:00;101566.63;;;17.08;38.26
35910;BME280;22004;49.120;-0.200;2023-04-20T10:27:26;101562.03;;;17.08;38.35
35910;BME280;22004;49.120;-0.200;2023-04-20T10:29:52;101566.31;;;16.20;36.95
35910;BME280;22004;49.120;-0.200;2023-04-20T10:32:21;101561.16;;;16.25;36.82
35910;BME280;22004;49.120;-0.200;2023-04-20T10:34:48;101548.03;;;15.72;34.66
35910;BME280;22004;49.120;-0.200;2023-04-20T10:37:24;101551.44;;;16.37;36.13
35910;BME280;22004;49.120;-0.200;2023-04-20T10:39:49;101544.88;;;16.53;36.53
35910;BME280;22004;49.120;-0.200;2023-04-20T10:42:15;101545.41;;;17.38;34.48
35910;BME280;22004;49.120;-0.200;2023-04-20T10:44:49;101545.34;;;17.11;35.99
35910;BME280;22004;49.120;-0.200;2023-04-20T10:47:16;101542.59;;;16.57;35.28
35910;BME280;22004;49.120;-0.200;2023-04-20T10:49:42;101542.38;;;16.23;37.45
35910;BME280;22004;49.120;-0.200;2023-04-20T10:52:07;101531.78;;;16.63;34.60
35910;BME280;22004;49.120;-0.200;2023-04-20T10:54:36;101542.06;;;16.40;35.00
35910;BME280;22004;49.120;-0.200;2023-04-20T10:57:04;101533.09;;;16.39;37.58
35910;BME280;22004;49.120;-0.200;2023-04-20T10:59:29;101535.66;;;16.47;34.71
35910;BME280;22004;49.120;-0.200;2023-04-20T11:01:55;101531.06;;;16.41;37.62
35910;BME280;22004;49.120;-0.200;2023-04-20T11:04:30;101532.50;;;16.85;37.60
35910;BME280;22004;49.120;-0.200;2023-04-20T11:07:08;101530.19;;;17.37;36.44
35910;BME280;22004;49.120;-0.200;2023-04-20T11:09:34;101521.22;;;16.75;36.25
35910;BME280;22004;49.120;-0.200;2023-04-20T11:12:06;101527.09;;;16.44;35.07
35910;BME280;22004;49.120;-0.200;2023-04-20T11:14:35;101518.38;;;16.55;38.60
35910;BME280;22004;49.120;-0.200;2023-04-20T11:17:05;101515.03;;;16.53;36.90
35910;BME280;22004;49.120;-0.200;2023-04-20T11:19:34;101515.41;;;16.85;37.23
35910;BME280;22004;49.120;-0.200;2023-04-20T11:22:02;101512.97;;;17.03;36.17
35910;BME280;22004;49.120;-0.200;2023-04-20T11:24:30;101519.41;;;16.95;37.89
35910;BME280;22004;49.120;-0.200;2023-04-20T11:26:56;101498.63;;;15.92;37.51
35910;BME280;22004;49.120;-0.200;2023-04-20T11:29:32;101507.63;;;16.27;36.47
35910;BME280;22004;49.120;-0.200;2023-04-20T11:31:59;101507.03;;;16.03;37.61
35910;BME280;22004;49.120;-0.200;2023-04-20T11:34:25;101503.94;;;16.76;37.77
35910;BME280;22004;49.120;-0.200;2023-04-20T11:36:51;101505.06;;;16.60;38.10
35910;BME280;22004;49.120;-0.200;2023-04-20T11:39:26;101508.41;;;16.62;37.97
35910;BME280;22004;49.120;-0.200;2023-04-20T11:41:53;101496.19;;;16.79;38.81
35910;BME280;22004;49.120;-0.200;2023-04-20T11:44:25;101498.34;;;16.15;39.31
35910;BME280;22004;49.120;-0.200;2023-04-20T11:46:52;101484.75;;;16.43;37.63
35910;BME280;22004;49.120;-0.200;2023-04-20T11:49:21;101496.13;;;16.66;38.13
35910;BME280;22004;49.120;-0.200;2023-04-20T11:51:47;101490.19;;;16.43;37.61
35910;BME280;22004;49.120;-0.200;2023-04-20T11:54:13;101496.75;;;16.68;39.40
35910;BME280;22004;49.120;-0.200;2023-04-20T11:56:39;101484.13;;;16.41;39.22
35910;BME280;22004;49.120;-0.200;2023-04-20T11:59:07;101475.47;;;16.17;38.70
35910;BME280;22004;49.120;-0.200;2023-04-20T12:01:32;101482.03;;;16.01;38.68
35910;BME280;22004;49.120;-0.200;2023-04-20T12:03:58;101487.03;;;16.05;38.79
35910;BME280;22004;49.120;-0.200;2023-04-20T12:06:26;101482.63;;;15.97;39.20
35910;BME280;22004;49.120;-0.200;2023-04-20T12:08:53;101487.00;;;16.33;39.63
35910;BME280;22004;49.120;-0.200;2023-04-20T12:11:19;101474.25;;;15.92;39.29
35910;BME280;22004;49.120;-0.200;2023-04-20T12:13:44;101473.50;;;16.05;37.24
35910;BME280;22004;49.120;-0.200;2023-04-20T12:16:10;101467.69;;;16.08;38.72
35910;BME280;22004;49.120;-0.200;2023-04-20T12:18:35;101476.44;;;16.10;39.21
35910;BME280;22004;49.120;-0.200;2023-04-20T12:21:01;101474.53;;;15.75;36.65
35910;BME280;22004;49.120;-0.200;2023-04-20T12:23:26;101484.88;;;15.93;37.65
35910;BME280;22004;49.120;-0.200;2023-04-20T12:25:51;101484.56;;;16.10;38.15
35910;BME280;22004;49.120;-0.200;2023-04-20T12:28:17;101480.22;;;16.15;36.45
35910;BME280;22004;49.120;-0.200;2023-04-20T12:30:43;101491.00;;;15.74;37.72
35910;BME280;22004;49.120;-0.200;2023-04-20T12:33:08;101493.97;;;15.58;35.93
35910;BME280;22004;49.120;-0.200;2023-04-20T12:35:33;101496.69;;;16.14;38.54